Time;durP1;ratioP1;P1;durP2;ratioP2;P2;SDS_P1;SDS_P2;PMS_P1;PMS_P2;Temp;Humidity;BMP_temperature;BMP_pressure;BME280_temperature;BME280_humidity;BME280_pressure;Samples;Min_cycle;Max_cycle;Signal;HPM_P1;HPM_P2
2023/08/22 00:00:13;;;;;;;17.13;10.15;;;;;;;19.51;100.00;102008.34;5027328;28;20033;-73
2023/08/22 00:02:39;;;;;;;13.80;10.40;;;;;;;19.50;100.00;102005.78;5027268;28;20814;-74
2023/08/22 00:05:05;;;;;;;15.50;10.73;;;;;;;19.51;100.00;102018.31;5026434;28;20044;-73
2023/08/22 00:07:31;;;;;;;10.50;9.18;;;;;;;19.51;100.00;102015.59;5027150;28;20076;-73
2023/08/22 00:09:56;;;;;;;14.52;9.38;;;;;;;19.46;100.00;102007.88;5027820;28;20050;-73
2023/08/22 00:12:22;;;;;;;12.23;8.55;;;;;;;19.25;100.00;101998.81;5027786;28;20132;-74
2023/08/22 00:14:50;;;;;;;22.55;10.18;;;;;;;19.30;100.00;101996.59;5022614;28;20041;-74
2023/08/22 00:17:18;;;;;;;18.63;9.10;;;;;;;19.35;100.00;102000.63;5027685;28;20091;-73
2023/08/22 00:19:45;;;;;;;12.15;8.55;;;;;;;19.36;100.00;102004.19;5023922;28;20580;-72
2023/08/22 00:22:11;;;;;;;16.17;8.95;;;;;;;19.30;100.00;102007.41;5039102;28;20037;-73
2023/08/22 00:24:38;;;;;;;17.85;9.38;;;;;;;19.31;100.00;101996.47;5027294;28;20041;-73
2023/08/22 00:27:03;;;;;;;14.75;9.02;;;;;;;19.33;100.00;101994.50;5038634;28;20121;-72
2023/08/22 00:29:30;;;;;;;15.07;9.07;;;;;;;19.34;100.00;101990.81;5042089;28;20526;-73
2023/08/22 00:31:59;;;;;;;14.63;8.32;;;;;;;19.35;100.00;101992.53;5022348;28;20041;-73
2023/08/22 00:34:25;;;;;;;12.98;8.38;;;;;;;19.39;100.00;101988.59;5018499;28;20052;-72
2023/08/22 00:36:51;;;;;;;15.90;9.77;;;;;;;19.46;100.00;101986.22;5028368;28;20046;-74
2023/08/22 00:39:16;;;;;;;12.25;8.55;;;;;;;19.50;100.00;101984.13;5027619;28;20029;-74
2023/08/22 00:41:42;;;;;;;13.60;9.07;;;;;;;19.46;100.00;101982.66;5016871;28;20819;-74
2023/08/22 00:44:07;;;;;;;12.23;8.63;;;;;;;19.36;100.00;101978.00;5026800;28;20033;-73
2023/08/22 00:46:34;;;;;;;13.60;8.15;;;;;;;19.31;100.00;101980.22;5027523;28;20042;-72
2023/08/22 00:49:03;;;;;;;12.38;8.57;;;;;;;19.38;100.00;101978.75;5030319;28;20060;-73
2023/08/22 00:51:28;;;;;;;19.55;10.32;;;;;;;19.45;100.00;101976.38;5038980;28;20040;-73
2023/08/22 00:53:54;;;;;;;17.77;10.95;;;;;;;19.37;100.00;101979.72;5059845;28;20456;-73
2023/08/22 00:56:20;;;;;;;19.83;9.95;;;;;;;19.33;100.00;101982.81;5026923;28;20637;-73
2023/08/22 00:58:46;;;;;;;15.98;9.93;;;;;;;19.35;100.00;101979.00;5027017;28;20038;-74
2023/08/22 01:01:12;;;;;;;17.58;11.35;;;;;;;19.39;100.00;101976.91;5028027;28;20034;-73
2023/08/22 01:03:37;;;;;;;21.00;11.60;;;;;;;19.39;100.00;101980.47;5026788;28;20038;-72
2023/08/22 01:06:19;;;;;;;15.73;11.00;;;;;;;19.38;100.00;101972.50;5027426;28;20037;-73
2023/08/22 01:08:51;;;;;;;18.25;10.68;;;;;;;19.43;100.00;101972.97;5022122;28;20061;-73
2023/08/22 01:11:40;;;;;;;15.38;10.27;;;;;;;19.42;100.00;101972.06;5019394;28;20045;-73
2023/08/22 01:14:10;;;;;;;19.52;11.50;;;;;;;19.32;100.00;101959.44;5029778;28;20041;-73
2023/08/22 01:16:36;;;;;;;19.15;10.90;;;;;;;19.32;100.00;101960.28;5026779;28;20029;-73
2023/08/22 01:19:05;;;;;;;22.35;11.27;;;;;;;19.25;100.00;101961.81;5024702;28;20865;-72
2023/08/22 01:21:34;;;;;;;18.08;11.32;;;;;;;19.27;100.00;101956.25;5023568;28;20144;-73
2023/08/22 01:23:59;;;;;;;17.52;10.77;;;;;;;19.21;100.00;101954.91;5030352;28;20541;-73
2023/08/22 01:26:25;;;;;;;19.95;10.07;;;;;;;19.22;100.00;101955.78;5045074;28;20049;-73
2023/08/22 01:28:57;;;;;;;12.73;9.70;;;;;;;19.15;100.00;101952.72;5064265;28;20037;-73
2023/08/22 01:31:32;;;;;;;19.55;10.98;;;;;;;19.22;100.00;101962.03;5030621;28;20041;-73
2023/08/22 01:34:11;;;;;;;19.35;10.95;;;;;;;19.21;100.00;101962.19;5024870;28;20048;-73
2023/08/22 01:36:40;;;;;;;15.48;10.75;;;;;;;19.17;100.00;101960.72;5027415;28;20124;-73
2023/08/22 01:39:07;;;;;;;16.08;11.48;;;;;;;19.25;100.00;101956.41;5029364;28;20034;-73
2023/08/22 01:41:34;;;;;;;15.70;10.98;;;;;;;19.11;100.00;101954.81;5028909;28;20037;-73
2023/08/22 01:44:03;;;;;;;16.23;10.60;;;;;;;19.05;100.00;101946.34;5053351;28;20531;-74
2023/08/22 01:46:30;;;;;;;16.45;11.07;;;;;;;19.12;100.00;101940.31;5024771;28;20033;-74
2023/08/22 01:48:56;;;;;;;14.63;9.95;;;;;;;19.10;100.00;101947.69;5029285;28;20033;-74
2023/08/22 01:51:21;;;;;;;15.93;10.00;;;;;;;19.05;100.00;101946.34;5022468;28;20033;-73
2023/08/22 01:53:47;;;;;;;14.75;10.75;;;;;;;19.09;100.00;101953.25;5028074;28;20693;-73
2023/08/22 01:56:13;;;;;;;16.98;10.43;;;;;;;19.04;100.00;101952.75;5024600;28;20033;-74
2023/08/22 01:58:38;;;;;;;17.13;10.15;;;;;;;18.98;100.00;101955.97;5024061;28;20915;-74
2023/08/22 02:01:11;;;;;;;12.95;9.30;;;;;;;18.94;100.00;101947.22;5044110;28;20851;-73
2023/08/22 02:03:38;;;;;;;15.73;10.25;;;;;;;18.99;100.00;101947.72;5028858;28;20029;-74
2023/08/22 02:06:04;;;;;;;16.90;10.57;;;;;;;18.97;100.00;101941.56;5028971;28;20985;-73
2023/08/22 02:08:29;;;;;;;20.15;10.95;;;;;;;18.90;100.00;101953.88;5029786;28;20042;-73
2023/08/22 02:10:55;;;;;;;16.30;9.65;;;;;;;18.86;100.00;101953.25;5028722;28;20045;-73
2023/08/22 02:13:20;;;;;;;17.00;10.50;;;;;;;18.86;100.00;101946.97;5028276;28;20038;-75
2023/08/22 02:15:46;;;;;;;15.43;10.73;;;;;;;18.94;100.00;101947.22;5027926;28;20030;-73
2023/08/22 02:18:12;;;;;;;13.30;10.02;;;;;;;18.96;100.00;101942.53;5030912;28;20030;-73
2023/08/22 02:20:39;;;;;;;17.67;11.45;;;;;;;18.98;100.00;101942.44;5042065;28;20033;-73
2023/08/22 02:23:04;;;;;;;18.77;10.27;;;;;;;19.04;100.00;101940.09;5029257;28;20108;-73
2023/08/22 02:25:33;;;;;;;19.52;11.45;;;;;;;19.05;100.00;101933.69;5031949;28;20049;-73
2023/08/22 02:27:59;;;;;;;19.58;10.40;;;;;;;19.05;100.00;101940.94;5028927;28;20115;-73
2023/08/22 02:30:25;;;;;;;13.38;9.82;;;;;;;18.94;100.00;101938.25;5029029;28;20037;-73
2023/08/22 02:32:51;;;;;;;16.80;10.50;;;;;;;18.95;100.00;101937.28;5029364;28;20068;-72
2023/08/22 02:35:16;;;;;;;19.65;10.20;;;;;;;18.93;100.00;101929.31;5031300;28;20044;-74
2023/08/22 02:37:42;;;;;;;21.15;10.07;;;;;;;18.89;100.00;101933.22;5031436;28;20036;-73
2023/08/22 02:40:11;;;;;;;13.93;10.45;;;;;;;18.88;100.00;101935.06;5025034;28;20041;-73
2023/08/22 02:42:37;;;;;;;18.08;9.98;;;;;;;18.85;100.00;101938.00;5014987;28;20041;-74
2023/08/22 02:45:03;;;;;;;18.60;10.25;;;;;;;18.83;100.00;101939.13;5032828;28;20041;-74
2023/08/22 02:47:29;;;;;;;12.23;9.05;;;;;;;18.83;100.00;101933.72;5026639;28;20041;-73
2023/08/22 02:49:55;;;;;;;14.23;10.07;;;;;;;18.80;100.00;101925.88;5031189;28;20080;-74
2023/08/22 02:52:21;;;;;;;12.15;9.60;;;;;;;18.82;100.00;101929.28;5017926;28;20066;-73
2023/08/22 02:54:46;;;;;;;13.85;10.02;;;;;;;18.78;100.00;101927.84;5029786;28;20119;-75
2023/08/22 02:57:12;;;;;;;16.98;10.30;;;;;;;18.72;100.00;101928.31;5063456;28;20038;-73
2023/08/22 02:59:37;;;;;;;16.88;11.40;;;;;;;18.69;100.00;101924.03;5031386;28;20034;-74
2023/08/22 03:02:03;;;;;;;14.00;11.05;;;;;;;18.65;100.00;101919.81;5032028;28;20038;-73
2023/08/22 03:04:30;;;;;;;16.55;11.57;;;;;;;18.58;100.00;101924.88;5022023;28;20066;-73
2023/08/22 03:06:57;;;;;;;20.27;11.38;;;;;;;18.64;100.00;101921.66;5039806;28;20037;-74
2023/08/22 03:09:22;;;;;;;12.48;9.60;;;;;;;18.61;100.00;101921.03;5064594;28;20840;-74
2023/08/22 03:11:48;;;;;;;21.17;9.75;;;;;;;18.69;100.00;101926.72;5033630;28;20871;-73
2023/08/22 03:14:14;;;;;;;17.52;11.02;;;;;;;18.72;100.00;101926.47;5034311;28;20029;-74
2023/08/22 03:16:39;;;;;;;16.60;11.40;;;;;;;18.67;100.00;101919.69;5060920;28;20554;-73
2023/08/22 03:19:05;;;;;;;18.35;11.38;;;;;;;18.64;100.00;101926.22;5050069;28;20030;-74
2023/08/22 03:21:31;;;;;;;21.92;10.63;;;;;;;18.57;100.00;101930.38;5052871;28;20030;-74
2023/08/22 03:23:56;;;;;;;11.27;9.13;;;;;;;18.50;100.00;101929.16;5037450;28;20048;-74
2023/08/22 03:26:23;;;;;;;10.48;8.45;;;;;;;18.42;100.00;101923.47;5070213;28;20037;-74
2023/08/22 03:28:48;;;;;;;14.20;9.07;;;;;;;18.43;100.00;101912.56;5038026;28;20769;-74
2023/08/22 03:31:14;;;;;;;15.00;10.88;;;;;;;18.32;100.00;101907.16;5040239;28;20033;-73
2023/08/22 03:33:41;;;;;;;16.90;11.88;;;;;;;18.30;100.00;101911.81;5070681;28;20033;-74
2023/08/22 03:36:08;;;;;;;13.48;9.00;;;;;;;18.21;100.00;101909.84;5037174;28;20029;-74
2023/08/22 03:38:34;;;;;;;12.60;9.82;;;;;;;18.17;100.00;101917.31;5035429;28;20048;-74
2023/08/22 03:41:00;;;;;;;12.88;9.32;;;;;;;18.17;100.00;101908.34;5028632;28;20049;-74
2023/08/22 03:43:26;;;;;;;16.33;9.27;;;;;;;18.15;100.00;101908.47;5029194;28;20971;-75
2023/08/22 03:45:51;;;;;;;13.07;8.57;;;;;;;18.08;100.00;101913.50;5046315;28;20041;-74
2023/08/22 03:48:17;;;;;;;7.38;6.15;;;;;;;17.99;100.00;101907.97;5030895;28;20108;-73
2023/08/22 03:50:43;;;;;;;9.57;6.45;;;;;;;18.01;100.00;101906.00;5044624;28;20749;-74
2023/08/22 03:53:10;;;;;;;11.38;8.38;;;;;;;18.06;100.00;101907.34;5033103;28;20116;-74
2023/08/22 03:55:37;;;;;;;12.20;9.30;;;;;;;18.08;100.00;101909.97;5033179;28;20037;-75
2023/08/22 03:58:03;;;;;;;14.55;8.88;;;;;;;18.07;100.00;101908.22;5029387;28;20068;-74
2023/08/22 04:00:30;;;;;;;10.68;8.13;;;;;;;18.01;100.00;101900.59;5026806;28;20035;-74
2023/08/22 04:02:59;;;;;;;11.10;6.90;;;;;;;17.93;100.00;101905.75;5033403;28;20033;-73
2023/08/22 04:05:25;;;;;;;6.78;5.32;;;;;;;17.91;100.00;101899.59;5021300;28;20065;-73
2023/08/22 04:07:52;;;;;;;11.55;8.05;;;;;;;17.92;100.00;101895.91;5029900;28;20080;-74
2023/08/22 04:10:18;;;;;;;9.98;6.40;;;;;;;17.86;100.00;101908.03;5030199;28;20145;-73
2023/08/22 04:12:44;;;;;;;11.48;7.65;;;;;;;17.83;100.00;101909.16;5026643;28;20028;-74
2023/08/22 04:15:11;;;;;;;16.10;8.23;;;;;;;17.73;100.00;101913.53;5026748;28;20064;-75
2023/08/22 04:17:43;;;;;;;10.43;7.30;;;;;;;17.65;100.00;101915.91;5028090;28;20076;-73
2023/08/22 04:20:10;;;;;;;17.88;8.10;;;;;;;17.65;100.00;101913.22;5041420;28;20080;-74
2023/08/22 04:22:37;;;;;;;12.43;9.18;;;;;;;17.72;100.00;101919.00;5015582;28;20091;-74
2023/08/22 04:25:04;;;;;;;13.70;9.45;;;;;;;17.71;100.00;101920.84;5028532;28;20033;-73
2023/08/22 04:27:30;;;;;;;10.15;8.30;;;;;;;17.69;100.00;101912.00;5028381;28;20543;-73
2023/08/22 04:29:55;;;;;;;12.15;8.95;;;;;;;17.63;100.00;101911.63;5037306;28;20099;-75
2023/08/22 04:32:21;;;;;;;10.27;7.20;;;;;;;17.53;100.00;101901.53;5027863;28;20033;-74
2023/08/22 04:34:49;;;;;;;7.90;6.22;;;;;;;17.55;100.00;101906.81;5026893;28;20030;-74
2023/08/22 04:37:15;;;;;;;8.07;5.60;;;;;;;17.51;100.00;101902.59;5056777;28;20365;-74
2023/08/22 04:39:41;;;;;;;8.52;6.10;;;;;;;17.45;100.00;101912.03;5026898;28;21058;-74
2023/08/22 04:42:39;;;;;;;9.68;5.60;;;;;;;17.46;100.00;101907.50;5025224;28;20997;-73
2023/08/22 04:45:07;;;;;;;8.77;7.25;;;;;;;17.48;100.00;101911.81;5028119;28;20963;-75
2023/08/22 04:47:33;;;;;;;7.32;5.25;;;;;;;17.46;100.00;101916.44;5009719;28;20080;-73
2023/08/22 04:49:58;;;;;;;7.15;4.63;;;;;;;17.55;100.00;101912.19;5018729;28;20061;-74
2023/08/22 04:52:24;;;;;;;11.02;6.68;;;;;;;17.57;100.00;101913.81;5016069;28;20054;-74
2023/08/22 04:54:50;;;;;;;10.93;6.18;;;;;;;17.61;100.00;101900.94;5012534;28;20033;-74
2023/08/22 04:57:15;;;;;;;11.95;7.32;;;;;;;17.64;100.00;101899.84;5022012;28;20050;-74
2023/08/22 04:59:41;;;;;;;8.38;6.32;;;;;;;17.70;100.00;101897.53;4995079;28;20092;-73
2023/08/22 05:02:07;;;;;;;12.00;7.13;;;;;;;17.79;100.00;101896.00;5021545;28;20112;-74
2023/08/22 05:04:32;;;;;;;9.95;5.57;;;;;;;17.74;100.00;101901.75;5012346;28;20053;-73
2023/08/22 05:06:58;;;;;;;5.80;4.88;;;;;;;17.77;100.00;101903.34;5006976;28;20147;-74
2023/08/22 05:09:24;;;;;;;7.40;5.00;;;;;;;17.77;100.00;101903.34;5021477;28;20113;-74
2023/08/22 05:11:50;;;;;;;7.63;5.25;;;;;;;17.82;100.00;101907.44;5025937;28;20053;-74
2023/08/22 05:14:16;;;;;;;8.70;5.53;;;;;;;17.92;100.00;101912.97;4995009;28;20132;-74
2023/08/22 05:16:43;;;;;;;12.02;6.60;;;;;;;17.92;100.00;101914.81;5027620;28;20092;-74
2023/08/22 05:19:09;;;;;;;12.90;7.07;;;;;;;17.83;100.00;101911.84;5026359;28;20052;-74
2023/08/22 05:21:35;;;;;;;12.07;7.60;;;;;;;17.90;100.00;101914.06;5028770;28;20052;-74
2023/08/22 05:24:00;;;;;;;10.60;7.00;;;;;;;17.93;100.00;101916.53;5031174;28;20080;-73
2023/08/22 05:26:27;;;;;;;9.55;7.38;;;;;;;17.97;100.00;101918.00;5027009;28;20038;-73
2023/08/22 05:28:52;;;;;;;9.02;7.35;;;;;;;17.95;100.00;101920.84;5031471;28;20041;-74
2023/08/22 05:31:22;;;;;;;9.25;6.60;;;;;;;17.99;100.00;101921.47;5027858;28;20033;-74
2023/08/22 05:33:49;;;;;;;8.75;6.53;;;;;;;18.19;100.00;101919.91;5064385;28;20033;-75
2023/08/22 05:36:14;;;;;;;9.93;8.00;;;;;;;18.28;100.00;101920.06;5032140;28;20025;-73
2023/08/22 05:38:41;;;;;;;10.60;7.45;;;;;;;18.54;100.00;101917.97;5030361;28;20104;-73
2023/08/22 05:41:06;;;;;;;9.07;7.90;;;;;;;18.79;100.00;101918.75;5036074;28;20028;-73
2023/08/22 05:43:32;;;;;;;11.30;8.57;;;;;;;19.01;100.00;101925.94;5029145;28;20033;-74
2023/08/22 05:45:57;;;;;;;10.57;8.05;;;;;;;19.25;100.00;101926.66;5031918;28;20037;-74
2023/08/22 05:48:23;;;;;;;15.25;10.10;;;;;;;19.49;100.00;101915.63;5030669;28;20048;-73
2023/08/22 05:50:50;;;;;;;11.95;8.98;;;;;;;19.62;100.00;101921.75;5032209;28;20123;-74
2023/08/22 05:53:16;;;;;;;14.45;9.70;;;;;;;19.86;100.00;101923.38;5031791;28;20180;-74
2023/08/22 05:55:42;;;;;;;15.05;10.48;;;;;;;19.96;100.00;101910.75;5043909;28;20083;-74
2023/08/22 05:58:08;;;;;;;17.55;11.18;;;;;;;20.10;100.00;101909.56;5063656;28;20057;-74
2023/08/22 06:00:34;;;;;;;15.45;11.35;;;;;;;20.26;100.00;101909.94;5044226;28;20558;-74
2023/08/22 06:03:00;;;;;;;15.40;10.40;;;;;;;20.44;100.00;101913.75;5032163;28;21003;-74
2023/08/22 06:05:27;;;;;;;14.75;9.90;;;;;;;20.59;100.00;101913.44;5045218;28;20029;-75
2023/08/22 06:07:53;;;;;;;16.30;11.10;;;;;;;20.81;100.00;101915.94;5024658;28;20041;-74
2023/08/22 06:10:18;;;;;;;16.45;11.30;;;;;;;21.08;100.00;101909.84;5030693;28;20080;-75
2023/08/22 06:12:44;;;;;;;15.65;11.05;;;;;;;21.26;100.00;101918.19;5029504;28;20056;-73
2023/08/22 06:15:10;;;;;;;16.83;11.73;;;;;;;21.40;100.00;101915.09;5029277;28;20128;-73
2023/08/22 06:17:37;;;;;;;17.27;12.20;;;;;;;21.64;100.00;101924.69;5045547;28;20033;-73
2023/08/22 06:20:04;;;;;;;17.80;12.50;;;;;;;21.83;100.00;101926.50;5062945;28;20108;-73
2023/08/22 06:22:30;;;;;;;16.17;10.43;;;;;;;22.02;100.00;101922.94;5032914;28;20030;-74
2023/08/22 06:24:55;;;;;;;20.83;11.70;;;;;;;22.13;100.00;101929.06;5027361;28;20042;-73
2023/08/22 06:27:21;;;;;;;18.17;11.32;;;;;;;22.33;100.00;101904.56;5028841;28;20041;-74
2023/08/22 06:29:48;;;;;;;23.70;12.07;;;;;;;22.42;100.00;101903.69;5061822;28;20045;-74
2023/08/22 06:32:14;;;;;;;16.60;11.07;;;;;;;22.66;100.00;101906.75;5043935;28;20030;-73
2023/08/22 06:34:40;;;;;;;22.95;11.85;;;;;;;22.72;100.00;101905.28;5027450;28;20033;-74
2023/08/22 06:37:06;;;;;;;17.27;10.52;;;;;;;22.79;100.00;101898.22;5024030;28;20113;-74
2023/08/22 06:39:33;;;;;;;16.58;9.73;;;;;;;23.08;100.00;101900.81;5030260;28;20038;-73
2023/08/22 06:41:58;;;;;;;18.00;9.55;;;;;;;23.20;100.00;101905.03;5024599;28;20037;-74
2023/08/22 06:44:24;;;;;;;16.58;10.10;;;;;;;23.58;100.00;101902.16;5039788;28;20768;-74
2023/08/22 06:46:50;;;;;;;14.32;8.85;;;;;;;23.46;100.00;101896.97;5030432;28;20806;-74
2023/08/22 06:49:16;;;;;;;15.20;9.27;;;;;;;24.03;100.00;101893.88;5029769;28;20037;-74
2023/08/22 06:51:42;;;;;;;16.17;9.70;;;;;;;24.46;97.05;101897.59;5023308;28;20060;-73
2023/08/22 06:54:08;;;;;;;11.32;8.15;;;;;;;24.80;94.11;101892.13;5029323;28;20060;-74
2023/08/22 06:56:33;;;;;;;13.07;8.27;;;;;;;24.74;90.04;101900.97;5029657;28;20046;-74
2023/08/22 06:58:59;;;;;;;13.68;8.40;;;;;;;24.73;87.88;101907.44;5025875;28;20034;-74
2023/08/22 07:01:24;;;;;;;13.50;8.10;;;;;;;25.10;86.33;101907.06;5028934;28;20443;-74
2023/08/22 07:03:50;;;;;;;11.70;7.20;;;;;;;24.93;84.51;101914.34;5031122;28;20042;-74
2023/08/22 07:06:15;;;;;;;16.70;6.65;;;;;;;24.95;83.81;101920.50;5030944;28;20052;-74
2023/08/22 07:08:41;;;;;;;14.38;7.13;;;;;;;24.84;83.90;101914.47;5046851;28;20044;-74
2023/08/22 07:11:07;;;;;;;14.07;7.50;;;;;;;24.91;84.71;101918.28;5011365;28;20049;-74
2023/08/22 07:13:33;;;;;;;13.32;7.15;;;;;;;24.62;84.36;101913.19;5030151;28;20046;-73
2023/08/22 07:15:59;;;;;;;12.70;6.40;;;;;;;24.48;84.74;101907.31;5030043;28;20041;-74
2023/08/22 07:18:27;;;;;;;9.13;6.07;;;;;;;24.28;85.47;101919.44;5045596;28;21098;-74
2023/08/22 07:20:53;;;;;;;14.30;6.88;;;;;;;23.84;86.32;101921.31;5030816;28;20842;-74
2023/08/22 07:23:19;;;;;;;12.52;6.45;;;;;;;23.49;88.51;101918.44;5063251;28;20037;-74
2023/08/22 07:25:49;;;;;;;9.77;6.00;;;;;;;23.47;90.26;101925.91;5030119;28;20072;-73
2023/08/22 07:28:15;;;;;;;12.20;6.22;;;;;;;23.26;94.20;101923.47;5025677;28;20064;-73
2023/08/22 07:30:41;;;;;;;13.68;6.10;;;;;;;23.23;95.29;101923.78;5026952;28;20046;-73
2023/08/22 07:33:07;;;;;;;10.30;6.20;;;;;;;23.35;94.32;101915.41;5028281;28;20033;-74
2023/08/22 07:35:35;;;;;;;14.18;6.65;;;;;;;23.45;91.55;101927.09;5024688;28;20147;-74
2023/08/22 07:38:01;;;;;;;14.85;7.50;;;;;;;23.51;90.29;101921.84;5028825;28;20075;-73
2023/08/22 07:40:26;;;;;;;10.23;6.72;;;;;;;23.79;90.96;101924.50;5029227;28;20567;-74
2023/08/22 07:42:52;;;;;;;9.77;6.28;;;;;;;23.84;87.48;101930.34;5028852;28;20679;-73
2023/08/22 07:45:18;;;;;;;11.40;5.75;;;;;;;24.08;85.49;101937.88;5030689;28;20038;-74
2023/08/22 07:47:44;;;;;;;12.45;5.85;;;;;;;24.32;84.92;101929.00;5026107;28;20080;-73
2023/08/22 07:50:10;;;;;;;8.90;6.15;;;;;;;24.63;84.11;101918.47;5023629;28;21196;-74
2023/08/22 07:52:36;;;;;;;16.15;7.20;;;;;;;25.01;80.39;101919.00;5020567;28;20041;-74
2023/08/22 07:55:02;;;;;;;11.70;6.57;;;;;;;25.29;79.77;101917.72;5028658;28;20088;-74
2023/08/22 07:57:28;;;;;;;13.18;7.00;;;;;;;25.29;77.52;101934.09;5020115;28;20052;-73
2023/08/22 07:59:54;;;;;;;15.20;7.22;;;;;;;25.12;78.04;101935.09;5013970;28;20080;-74
2023/08/22 08:02:19;;;;;;;13.55;6.90;;;;;;;25.09;76.26;101926.38;5025059;28;20051;-74
2023/08/22 08:04:45;;;;;;;13.35;6.40;;;;;;;25.09;77.05;101938.13;5026794;28;20087;-74
2023/08/22 08:07:10;;;;;;;14.05;6.70;;;;;;;25.39;77.80;101933.09;5028961;28;20052;-74
2023/08/22 08:09:36;;;;;;;13.95;6.80;;;;;;;25.26;77.07;101939.91;5032600;28;20123;-74
2023/08/22 08:12:03;;;;;;;14.85;7.03;;;;;;;25.58;78.15;101940.97;5024942;28;20366;-74
2023/08/22 08:14:28;;;;;;;10.90;6.40;;;;;;;25.70;76.00;101928.69;5032750;28;20041;-74
2023/08/22 08:16:54;;;;;;;8.70;5.00;;;;;;;25.86;76.44;101933.38;5032101;28;20033;-75
2023/08/22 08:19:20;;;;;;;11.73;5.82;;;;;;;26.02;74.30;101935.22;5032270;28;20046;-73
2023/08/22 08:21:45;;;;;;;10.52;6.45;;;;;;;26.05;74.35;101935.72;5026478;28;20032;-74
2023/08/22 08:24:11;;;;;;;11.35;5.40;;;;;;;25.80;73.45;101932.16;5026640;28;20565;-73
2023/08/22 08:26:37;;;;;;;9.05;5.18;;;;;;;25.77;70.97;101945.31;5031543;28;20813;-73
2023/08/22 08:29:03;;;;;;;8.38;4.70;;;;;;;25.85;69.98;101947.19;5028116;28;20049;-73
2023/08/22 08:31:29;;;;;;;9.80;4.45;;;;;;;25.96;69.36;101946.88;5025426;28;20084;-74
2023/08/22 08:33:54;;;;;;;8.68;3.75;;;;;;;25.98;70.95;101948.38;5032696;28;20179;-74
2023/08/22 08:36:20;;;;;;;9.52;3.60;;;;;;;26.12;69.89;101946.84;5033837;28;20140;-74
2023/08/22 08:38:45;;;;;;;7.43;3.42;;;;;;;26.04;68.31;101947.69;5030211;28;20561;-74
2023/08/22 08:41:12;;;;;;;9.73;3.95;;;;;;;26.05;67.75;101946.66;5032847;28;20211;-73
2023/08/22 08:43:38;;;;;;;9.23;4.07;;;;;;;25.98;68.07;101944.78;5036335;28;20142;-73
2023/08/22 08:46:04;;;;;;;11.25;4.32;;;;;;;25.92;68.59;101960.00;5037223;28;20941;-73
2023/08/22 08:48:30;;;;;;;10.98;3.78;;;;;;;26.05;67.74;101952.13;5042652;28;20038;-73
2023/08/22 08:51:01;;;;;;;7.05;3.50;;;;;;;26.31;69.05;101948.38;5036350;28;20111;-74
2023/08/22 08:53:28;;;;;;;11.55;4.32;;;;;;;26.35;66.98;101950.53;5037170;28;20030;-74
2023/08/22 08:55:53;;;;;;;11.40;2.90;;;;;;;25.77;66.25;101946.16;5032323;28;20060;-74
2023/08/22 08:58:19;;;;;;;10.27;3.33;;;;;;;25.66;66.81;101951.94;5038521;28;20943;-74
2023/08/22 09:00:45;;;;;;;4.47;2.40;;;;;;;25.54;65.44;101953.25;5052141;28;20037;-73
2023/08/22 09:03:11;;;;;;;7.35;2.45;;;;;;;25.39;65.72;101950.34;5033790;28;20033;-74
2023/08/22 09:05:37;;;;;;;8.13;3.00;;;;;;;25.34;65.42;101955.44;5038695;28;20460;-74
2023/08/22 09:08:19;;;;;;;9.57;3.08;;;;;;;25.30;66.78;101954.06;5037624;28;20486;-74
2023/08/22 09:10:53;;;;;;;9.35;3.17;;;;;;;25.35;66.32;101954.41;5039095;28;20071;-74
2023/08/22 09:13:29;;;;;;;6.72;3.05;;;;;;;25.71;67.29;101956.91;5035964;28;20041;-73
2023/08/22 09:16:01;;;;;;;6.55;2.97;;;;;;;25.98;67.54;101953.84;5032127;28;20044;-74
2023/08/22 09:18:27;;;;;;;7.55;3.83;;;;;;;25.72;66.37;101953.97;5031810;28;20105;-73
2023/08/22 09:21:02;;;;;;;9.27;3.55;;;;;;;26.05;65.26;101954.84;5033078;28;20029;-74
2023/08/22 09:23:29;;;;;;;10.00;3.75;;;;;;;26.32;66.50;101948.19;5032207;28;20065;-74
2023/08/22 09:25:55;;;;;;;13.13;4.30;;;;;;;26.15;64.08;101954.69;5035361;28;20029;-74
2023/08/22 09:28:21;;;;;;;8.40;3.85;;;;;;;26.36;64.39;101962.38;5037987;28;20050;-74
2023/08/22 09:30:48;;;;;;;8.73;3.60;;;;;;;26.37;64.24;101961.34;5034890;28;20041;-75
2023/08/22 09:33:15;;;;;;;10.23;3.63;;;;;;;26.58;63.43;101953.44;5030730;28;20038;-72
2023/08/22 09:35:41;;;;;;;7.60;3.45;;;;;;;26.85;63.11;101943.09;5036373;28;20105;-74
2023/08/22 09:38:08;;;;;;;6.82;2.95;;;;;;;27.24;63.50;101947.72;5044423;28;20403;-76
2023/08/22 09:40:34;;;;;;;8.57;3.80;;;;;;;27.63;64.66;101944.91;5017043;28;20042;-72
2023/08/22 09:43:03;;;;;;;7.25;3.60;;;;;;;27.85;62.23;101959.66;5032268;28;20038;-73
2023/08/22 09:45:31;;;;;;;8.57;3.13;;;;;;;27.56;61.75;101958.50;5034832;28;20144;-74
2023/08/22 09:48:00;;;;;;;10.80;3.30;;;;;;;27.27;61.76;101955.59;5033430;28;20107;-74
2023/08/22 09:50:28;;;;;;;11.43;3.67;;;;;;;26.99;60.55;101955.19;5045999;28;20085;-74
2023/08/22 09:52:55;;;;;;;11.27;4.55;;;;;;;26.94;61.06;101958.44;5021469;28;20041;-75
2023/08/22 09:55:21;;;;;;;7.25;3.47;;;;;;;26.82;61.21;101949.78;5029005;28;20120;-74
2023/08/22 09:57:48;;;;;;;8.27;4.05;;;;;;;26.55;61.31;101951.06;5030618;28;20378;-74
2023/08/22 10:00:14;;;;;;;10.00;4.30;;;;;;;26.50;61.64;101956.19;5026563;28;20037;-73
2023/08/22 10:02:41;;;;;;;10.00;4.15;;;;;;;26.36;62.84;101935.03;5032802;28;20041;-73
2023/08/22 10:05:09;;;;;;;14.85;4.72;;;;;;;26.79;62.41;101943.81;5030950;28;20041;-74
2023/08/22 10:07:35;;;;;;;13.75;4.88;;;;;;;26.94;60.25;101941.19;5029274;28;20053;-74
2023/08/22 10:10:00;;;;;;;8.57;4.68;;;;;;;26.75;62.39;101936.97;5022482;28;20077;-73
2023/08/22 10:12:27;;;;;;;8.88;4.07;;;;;;;26.59;62.33;101936.00;5061485;28;20042;-75
2023/08/22 10:14:56;;;;;;;8.73;6.03;;;;;;;26.43;63.10;101944.25;5029970;28;20102;-73
2023/08/22 10:17:26;;;;;;;15.75;8.27;;;;;;;26.12;64.49;101938.63;4994382;28;20842;-74
2023/08/22 10:19:52;;;;;;;15.90;6.70;;;;;;;26.11;64.98;101936.94;5028950;28;20042;-74
2023/08/22 10:22:17;;;;;;;12.40;7.07;;;;;;;26.24;64.63;101937.25;5029777;28;21073;-73
2023/08/22 10:24:47;;;;;;;15.40;7.05;;;;;;;26.58;64.38;101939.75;5022447;28;20113;-74
2023/08/22 10:27:15;;;;;;;16.48;6.88;;;;;;;26.95;63.88;101951.94;5036370;28;20048;-74
2023/08/22 10:29:45;;;;;;;13.80;5.72;;;;;;;27.35;63.24;101950.06;5028666;28;20258;-73
2023/08/22 10:32:10;;;;;;;13.10;6.20;;;;;;;27.88;60.46;101940.13;5028259;28;20140;-74
2023/08/22 10:34:38;;;;;;;9.57;5.82;;;;;;;28.34;61.57;101940.06;5024050;28;21017;-73
2023/08/22 10:37:06;;;;;;;12.43;6.78;;;;;;;28.31;61.59;101938.50;5024550;28;20046;-73
2023/08/22 10:39:37;;;;;;;13.50;6.97;;;;;;;28.44;62.03;101937.03;5026217;28;20119;-74
2023/08/22 10:42:03;;;;;;;13.32;8.25;;;;;;;28.01;61.37;101934.84;5024774;28;20038;-74
2023/08/22 10:44:30;;;;;;;15.80;7.95;;;;;;;28.39;61.07;101923.88;5029137;28;20033;-73
2023/08/22 10:47:04;;;;;;;19.17;9.68;;;;;;;28.07;59.82;101933.28;5028007;28;20041;-74
2023/08/22 10:49:33;;;;;;;13.43;9.00;;;;;;;28.07;59.37;101934.13;5029835;28;20041;-73
2023/08/22 10:52:09;;;;;;;14.25;9.32;;;;;;;27.33;61.38;101957.63;5023310;28;20111;-73
2023/08/22 10:55:05;;;;;;;13.82;8.57;;;;;;;27.35;61.67;101956.38;5009791;28;20048;-73
2023/08/22 10:57:32;;;;;;;14.50;7.53;;;;;;;27.71;60.21;101949.50;5021932;28;20026;-74
2023/08/22 11:00:13;;;;;;;12.38;8.00;;;;;;;27.93;60.00;101945.06;5024166;28;20029;-74
2023/08/22 11:02:42;;;;;;;12.45;8.63;;;;;;;27.97;61.60;101940.91;5030304;28;20908;-74
2023/08/22 11:05:10;;;;;;;17.15;8.18;;;;;;;28.03;59.54;101951.97;5028969;28;20037;-73
2023/08/22 11:07:36;;;;;;;14.43;8.15;;;;;;;27.80;60.19;101954.72;5023508;28;20094;-74
2023/08/22 11:10:03;;;;;;;16.48;7.78;;;;;;;28.17;59.96;101946.72;5026957;28;20041;-73